Time;durP1;ratioP1;P1;durP2;ratioP2;P2;SDS_P1;SDS_P2;PMS_P1;PMS_P2;Temp;Humidity;BMP_temperature;BMP_pressure;BME280_temperature;BME280_humidity;BME280_pressure;Samples;Min_cycle;Max_cycle;Signal;HPM_P1;HPM_P2
2021/05/31 00:01:04;;;;;;;9.2;8.0;;;;;;;15.7;54.6;102220;;;;
2021/05/31 00:03:04;;;;;;;9.2;8.0;;;;;;;15.5;55.7;102220;;;;
2021/05/31 00:05:04;;;;;;;9.2;8.0;;;;;;;15.6;54.9;102220;;;;
2021/05/31 00:07:04;;;;;;;9.2;8.0;;;;;;;15.5;54.9;102220;;;;
2021/05/31 00:11:04;;;;;;;9.2;8.0;;;;;;;15.2;56.0;102220;;;;
2021/05/31 00:13:04;;;;;;;9.2;8.0;;;;;;;15.3;55.6;102220;;;;
2021/05/31 00:15:04;;;;;;;9.2;8.0;;;;;;;15.2;55.7;102220;;;;
2021/05/31 00:17:04;;;;;;;9.2;8.0;;;;;;;15.4;54.9;102210;;;;
2021/05/31 00:19:04;;;;;;;9.2;8.0;;;;;;;15.6;54.3;102210;;;;
2021/05/31 00:21:04;;;;;;;10.0;9.0;;;;;;;15.5;54.9;102210;;;;
2021/05/31 00:27:04;;;;;;;10.0;9.0;;;;;;;15.3;55.3;102210;;;;
2021/05/31 00:35:04;;;;;;;10.0;9.0;;;;;;;15.2;55.7;102210;;;;
2021/05/31 00:37:04;;;;;;;10.0;9.0;;;;;;;15.3;55.1;102210;;;;
2021/05/31 00:39:04;;;;;;;10.0;9.0;;;;;;;15.5;54.3;102200;;;;
2021/05/31 00:41:04;;;;;;;10.5;8.9;;;;;;;15.3;54.8;102200;;;;
2021/05/31 00:43:04;;;;;;;10.5;8.9;;;;;;;15.2;54.7;102200;;;;
2021/05/31 00:45:04;;;;;;;10.5;8.9;;;;;;;15.1;55.2;102200;;;;
2021/05/31 00:47:04;;;;;;;10.5;8.9;;;;;;;15.2;54.4;102200;;;;
2021/05/31 00:51:04;;;;;;;10.5;8.9;;;;;;;15.3;54.4;102200;;;;
2021/05/31 00:53:04;;;;;;;10.5;8.9;;;;;;;15.0;56.4;102200;;;;
2021/05/31 00:55:04;;;;;;;10.5;8.9;;;;;;;14.9;56.1;102200;;;;
2021/05/31 00:57:04;;;;;;;10.5;8.9;;;;;;;14.8;56.9;102200;;;;
2021/05/31 00:59:04;;;;;;;11.5;10.4;;;;;;;14.9;56.2;102200;;;;
2021/05/31 01:01:04;;;;;;;11.5;10.4;;;;;;;14.8;56.9;102200;;;;
2021/05/31 01:03:04;;;;;;;11.5;10.4;;;;;;;14.6;57.6;102200;;;;
2021/05/31 01:05:04;;;;;;;11.5;10.4;;;;;;;14.5;58.1;102200;;;;
2021/05/31 01:07:05;;;;;;;11.5;10.4;;;;;;;14.6;57.8;102200;;;;
2021/05/31 01:09:05;;;;;;;11.5;10.4;;;;;;;14.7;56.8;102200;;;;
2021/05/31 01:11:04;;;;;;;11.5;10.4;;;;;;;14.6;57.4;102200;;;;
2021/05/31 01:13:04;;;;;;;11.5;10.4;;;;;;;14.4;58.3;102200;;;;
2021/05/31 01:19:04;;;;;;;14.3;11.1;;;;;;;14.5;57.9;102200;;;;
2021/05/31 01:21:04;;;;;;;14.3;11.1;;;;;;;14.3;58.8;102200;;;;
2021/05/31 01:23:04;;;;;;;14.3;11.1;;;;;;;14.2;59.6;102200;;;;
2021/05/31 01:25:04;;;;;;;14.3;11.1;;;;;;;14.1;59.4;102200;;;;
2021/05/31 01:29:04;;;;;;;14.3;11.1;;;;;;;14.3;58.9;102200;;;;
2021/05/31 01:39:04;;;;;;;14.7;12.0;;;;;;;14.4;58.3;102200;;;;
2021/05/31 01:41:04;;;;;;;14.7;12.0;;;;;;;14.0;59.9;102200;;;;
2021/05/31 01:47:04;;;;;;;14.7;12.0;;;;;;;14.1;59.3;102200;;;;
2021/05/31 01:51:04;;;;;;;14.7;12.0;;;;;;;14.0;59.8;102190;;;;
2021/05/31 01:53:04;;;;;;;14.7;12.0;;;;;;;13.9;60.0;102190;;;;
2021/05/31 01:55:04;;;;;;;14.7;12.0;;;;;;;14.0;59.6;102190;;;;
2021/05/31 02:01:05;;;;;;;16.6;13.3;;;;;;;14.1;60.0;102190;;;;
2021/05/31 02:03:09;;;;;;;16.6;13.3;;;;;;;14.0;59.6;102190;;;;
2021/05/31 02:05:04;;;;;;;16.6;13.3;;;;;;;14.1;59.2;102190;;;;
2021/05/31 02:07:04;;;;;;;16.6;13.3;;;;;;;13.9;59.8;102190;;;;
2021/05/31 02:09:04;;;;;;;16.6;13.3;;;;;;;13.8;59.9;102190;;;;
2021/05/31 02:11:04;;;;;;;16.6;13.3;;;;;;;13.9;59.3;102180;;;;
2021/05/31 02:13:04;;;;;;;16.6;13.3;;;;;;;13.8;60.3;102190;;;;
2021/05/31 02:15:04;;;;;;;16.6;13.3;;;;;;;13.6;61.3;102190;;;;
2021/05/31 02:17:04;;;;;;;16.6;13.3;;;;;;;13.7;60.2;102190;;;;
2021/05/31 02:19:04;;;;;;;15.4;13.8;;;;;;;13.8;60.5;102190;;;;
2021/05/31 02:25:04;;;;;;;15.4;13.8;;;;;;;13.6;61.3;102190;;;;
2021/05/31 02:33:04;;;;;;;15.4;13.8;;;;;;;13.4;62.4;102190;;;;
2021/05/31 02:35:04;;;;;;;15.4;13.8;;;;;;;13.5;61.5;102190;;;;
2021/05/31 02:41:04;;;;;;;16.9;14.8;;;;;;;13.6;60.7;102190;;;;
2021/05/31 02:43:04;;;;;;;16.9;14.8;;;;;;;13.5;60.5;102190;;;;
2021/05/31 02:45:04;;;;;;;16.9;14.8;;;;;;;13.4;61.7;102190;;;;
2021/05/31 02:49:06;;;;;;;16.9;14.8;;;;;;;13.3;62.2;102190;;;;
2021/05/31 02:53:04;;;;;;;16.9;14.8;;;;;;;13.2;62.8;102200;;;;
2021/05/31 02:59:04;;;;;;;16.9;15.1;;;;;;;13.3;61.8;102190;;;;
2021/05/31 03:03:04;;;;;;;16.9;15.1;;;;;;;13.2;62.7;102190;;;;
2021/05/31 03:11:04;;;;;;;16.9;15.1;;;;;;;13.0;63.3;102190;;;;
2021/05/31 03:13:04;;;;;;;16.9;15.1;;;;;;;13.1;62.8;102190;;;;
2021/05/31 03:15:04;;;;;;;16.9;15.1;;;;;;;13.2;62.2;102190;;;;
2021/05/31 03:17:04;;;;;;;16.9;15.1;;;;;;;13.0;63.6;102190;;;;
2021/05/31 03:19:04;;;;;;;18.1;16.2;;;;;;;13.1;63.2;102180;;;;
2021/05/31 03:21:04;;;;;;;18.1;16.2;;;;;;;13.2;61.5;102190;;;;
2021/05/31 03:23:04;;;;;;;18.1;16.2;;;;;;;13.1;62.4;102190;;;;
2021/05/31 03:27:04;;;;;;;18.1;16.2;;;;;;;12.9;63.6;102190;;;;
2021/05/31 03:29:04;;;;;;;18.1;16.2;;;;;;;13.0;62.9;102190;;;;
2021/05/31 03:31:04;;;;;;;18.1;16.2;;;;;;;12.9;63.2;102190;;;;
2021/05/31 03:39:04;;;;;;;21.7;18.7;;;;;;;12.8;64.9;102190;;;;
2021/05/31 03:43:04;;;;;;;21.7;18.7;;;;;;;12.7;64.2;102190;;;;
2021/05/31 03:45:04;;;;;;;21.7;18.7;;;;;;;12.6;65.2;102190;;;;
2021/05/31 03:47:04;;;;;;;21.7;18.7;;;;;;;12.7;64.9;102190;;;;
2021/05/31 03:49:04;;;;;;;21.7;18.7;;;;;;;12.6;65.2;102190;;;;
2021/05/31 03:51:12;;;;;;;21.7;18.7;;;;;;;12.7;64.8;102190;;;;
2021/05/31 03:53:04;;;;;;;21.7;18.7;;;;;;;12.9;64.3;102190;;;;
2021/05/31 03:55:04;;;;;;;21.7;18.7;;;;;;;13.0;63.5;102200;;;;
2021/05/31 03:57:04;;;;;;;21.7;18.7;;;;;;;12.8;64.1;102190;;;;
2021/05/31 03:59:04;;;;;;;23.1;18.5;;;;;;;12.9;63.6;102190;;;;
2021/05/31 04:03:04;;;;;;;23.1;18.5;;;;;;;12.8;63.3;102190;;;;
2021/05/31 04:05:04;;;;;;;23.1;18.5;;;;;;;12.9;63.5;102190;;;;
2021/05/31 04:23:04;;;;;;;22.4;18.9;;;;;;;12.7;66.0;102190;;;;
2021/05/31 04:25:04;;;;;;;22.4;18.9;;;;;;;12.6;66.4;102200;;;;
2021/05/31 04:27:04;;;;;;;22.4;18.9;;;;;;;12.7;64.9;102190;;;;
2021/05/31 04:29:04;;;;;;;22.4;18.9;;;;;;;12.8;65.4;102190;;;;
2021/05/31 04:31:04;;;;;;;22.4;18.9;;;;;;;12.7;65.7;102190;;;;
2021/05/31 04:33:04;;;;;;;22.4;18.9;;;;;;;12.9;64.6;102190;;;;
2021/05/31 04:35:04;;;;;;;22.4;18.9;;;;;;;12.8;65.5;102190;;;;
2021/05/31 04:37:04;;;;;;;22.4;18.9;;;;;;;12.9;64.4;102190;;;;
2021/05/31 04:39:04;;;;;;;21.3;19.0;;;;;;;13.0;65.4;102190;;;;
2021/05/31 04:41:04;;;;;;;21.3;19.0;;;;;;;12.9;65.2;102190;;;;
2021/05/31 04:45:04;;;;;;;21.3;19.0;;;;;;;13.0;64.5;102190;;;;
2021/05/31 04:49:04;;;;;;;21.3;19.0;;;;;;;12.9;65.9;102190;;;;
2021/05/31 04:51:04;;;;;;;21.3;19.0;;;;;;;13.1;65.2;102190;;;;
2021/05/31 04:59:04;;;;;;;23.7;20.0;;;;;;;13.2;66.0;102190;;;;
2021/05/31 05:01:04;;;;;;;23.7;20.0;;;;;;;12.9;67.2;102190;;;;
2021/05/31 05:03:04;;;;;;;23.7;20.0;;;;;;;13.1;66.1;102190;;;;
2021/05/31 05:05:04;;;;;;;23.7;20.0;;;;;;;13.2;65.9;102190;;;;
2021/05/31 05:07:04;;;;;;;23.7;20.0;;;;;;;13.3;65.9;102190;;;;
2021/05/31 05:13:04;;;;;;;23.7;20.0;;;;;;;13.4;66.3;102180;;;;
2021/05/31 05:15:05;;;;;;;23.7;20.0;;;;;;;13.3;65.8;102180;;;;
2021/05/31 05:17:04;;;;;;;23.7;20.0;;;;;;;13.5;65.6;102180;;;;
2021/05/31 05:19:04;;;;;;;22.2;19.5;;;;;;;13.6;65.6;102180;;;;
2021/05/31 05:23:14;;;;;;;22.2;19.5;;;;;;;13.7;64.4;102180;;;;
2021/05/31 05:25:04;;;;;;;22.2;19.5;;;;;;;13.8;65.1;102180;;;;
2021/05/31 05:27:06;;;;;;;22.2;19.5;;;;;;;13.9;64.3;102180;;;;
2021/05/31 05:31:07;;;;;;;22.2;19.5;;;;;;;14.0;63.9;102180;;;;
2021/05/31 05:33:04;;;;;;;22.2;19.5;;;;;;;13.9;64.3;102180;;;;
2021/05/31 05:35:14;;;;;;;22.2;19.5;;;;;;;14.0;64.1;102180;;;;
2021/05/31 05:37:08;;;;;;;22.2;19.5;;;;;;;14.1;64.4;102180;;;;
2021/05/31 05:41:18;;;;;;;23.4;20.3;;;;;;;14.3;63.9;102180;;;;
2021/05/31 05:43:20;;;;;;;23.4;20.3;;;;;;;14.2;63.9;102180;;;;
2021/05/31 05:49:04;;;;;;;23.4;20.3;;;;;;;14.5;62.8;102180;;;;
2021/05/31 05:53:04;;;;;;;23.4;20.3;;;;;;;14.6;62.9;102180;;;;
2021/05/31 05:55:04;;;;;;;23.4;20.3;;;;;;;14.7;62.4;102180;;;;
2021/05/31 05:59:04;;;;;;;21.7;19.4;;;;;;;14.9;61.9;102170;;;;
2021/05/31 06:03:04;;;;;;;21.7;19.4;;;;;;;15.0;61.9;102170;;;;
2021/05/31 06:07:04;;;;;;;21.7;19.4;;;;;;;15.3;61.9;102170;;;;
2021/05/31 06:11:04;;;;;;;21.7;19.4;;;;;;;15.2;61.1;102170;;;;
2021/05/31 06:13:04;;;;;;;21.7;19.4;;;;;;;15.4;60.9;102170;;;;
2021/05/31 06:15:04;;;;;;;21.7;19.4;;;;;;;15.5;61.2;102180;;;;
2021/05/31 06:21:04;;;;;;;19.5;17.5;;;;;;;15.6;60.6;102180;;;;
2021/05/31 06:23:04;;;;;;;19.5;17.5;;;;;;;15.7;60.1;102170;;;;
2021/05/31 06:25:04;;;;;;;19.5;17.5;;;;;;;15.8;60.8;102170;;;;
2021/05/31 06:29:04;;;;;;;19.5;17.5;;;;;;;15.9;59.6;102170;;;;
2021/05/31 06:31:04;;;;;;;19.5;17.5;;;;;;;16.0;59.5;102170;;;;
2021/05/31 06:35:04;;;;;;;19.5;17.5;;;;;;;16.1;59.4;102170;;;;
2021/05/31 06:37:04;;;;;;;19.5;17.5;;;;;;;16.2;59.3;102160;;;;
2021/05/31 06:39:07;;;;;;;19.0;15.9;;;;;;;16.3;59.1;102160;;;;
2021/05/31 06:43:04;;;;;;;19.0;15.9;;;;;;;16.2;58.7;102160;;;;
2021/05/31 06:45:04;;;;;;;19.0;15.9;;;;;;;16.4;58.7;102160;;;;
2021/05/31 06:49:04;;;;;;;19.0;15.9;;;;;;;16.6;58.5;102160;;;;
2021/05/31 06:51:04;;;;;;;19.0;15.9;;;;;;;16.7;58.1;102160;;;;
2021/05/31 06:53:04;;;;;;;19.0;15.9;;;;;;;16.8;57.9;102160;;;;
2021/05/31 06:57:04;;;;;;;19.0;15.9;;;;;;;16.5;58.1;102160;;;;
2021/05/31 06:59:04;;;;;;;17.3;15.5;;;;;;;16.8;58.1;102160;;;;
2021/05/31 07:01:06;;;;;;;17.3;15.5;;;;;;;17.0;57.3;102160;;;;
2021/05/31 07:03:04;;;;;;;17.3;15.5;;;;;;;17.1;57.2;102150;;;;
2021/05/31 07:09:04;;;;;;;17.3;15.5;;;;;;;17.2;57.2;102150;;;;
2021/05/31 07:11:11;;;;;;;17.3;15.5;;;;;;;17.3;56.7;102150;;;;
2021/05/31 07:13:05;;;;;;;17.3;15.5;;;;;;;17.4;57.1;102150;;;;
2021/05/31 07:15:05;;;;;;;17.3;15.5;;;;;;;17.3;56.6;102150;;;;
2021/05/31 07:17:04;;;;;;;17.3;15.5;;;;;;;17.2;57.1;102150;;;;
2021/05/31 07:19:04;;;;;;;17.7;14.9;;;;;;;17.5;56.0;102140;;;;
2021/05/31 07:21:04;;;;;;;17.7;14.9;;;;;;;17.6;55.9;102140;;;;
2021/05/31 07:25:07;;;;;;;17.7;14.9;;;;;;;17.7;56.2;102150;;;;
2021/05/31 07:27:04;;;;;;;17.7;14.9;;;;;;;17.8;55.7;102150;;;;
2021/05/31 07:33:04;;;;;;;17.7;14.9;;;;;;;18.0;55.1;102140;;;;
2021/05/31 07:35:04;;;;;;;17.7;14.9;;;;;;;18.1;54.0;102140;;;;
2021/05/31 07:37:04;;;;;;;17.7;14.9;;;;;;;18.2;54.3;102140;;;;
2021/05/31 07:39:04;;;;;;;15.1;13.5;;;;;;;18.3;53.8;102140;;;;
2021/05/31 07:43:04;;;;;;;15.1;13.5;;;;;;;18.4;54.4;102140;;;;
2021/05/31 07:45:04;;;;;;;15.1;13.5;;;;;;;18.3;54.2;102140;;;;
2021/05/31 07:47:04;;;;;;;15.1;13.5;;;;;;;18.5;53.6;102140;;;;
2021/05/31 07:49:04;;;;;;;15.1;13.5;;;;;;;18.6;52.8;102140;;;;
2021/05/31 07:57:04;;;;;;;15.1;13.5;;;;;;;18.8;51.9;102130;;;;
2021/05/31 08:01:04;;;;;;;15.6;11.9;;;;;;;18.7;52.0;102130;;;;
2021/05/31 08:03:04;;;;;;;15.6;11.9;;;;;;;18.9;51.3;102130;;;;
2021/05/31 08:07:04;;;;;;;15.6;11.9;;;;;;;19.0;51.2;102120;;;;
2021/05/31 08:11:04;;;;;;;15.6;11.9;;;;;;;19.1;50.7;102130;;;;
2021/05/31 08:13:04;;;;;;;15.6;11.9;;;;;;;19.2;50.5;102120;;;;
2021/05/31 08:17:04;;;;;;;15.6;11.9;;;;;;;19.3;50.4;102120;;;;
2021/05/31 08:19:04;;;;;;;14.9;10.2;;;;;;;19.5;50.3;102120;;;;
2021/05/31 08:25:04;;;;;;;14.9;10.2;;;;;;;19.6;50.0;102120;;;;
2021/05/31 08:29:04;;;;;;;14.9;10.2;;;;;;;19.8;48.6;102120;;;;
2021/05/31 08:33:04;;;;;;;14.9;10.2;;;;;;;20.0;48.8;102110;;;;
2021/05/31 08:35:04;;;;;;;14.9;10.2;;;;;;;20.1;47.6;102120;;;;
2021/05/31 08:37:04;;;;;;;14.9;10.2;;;;;;;20.2;46.4;102110;;;;
2021/05/31 08:39:04;;;;;;;8.7;7.0;;;;;;;20.1;46.6;102120;;;;
2021/05/31 08:41:04;;;;;;;8.7;7.0;;;;;;;20.2;46.6;102120;;;;
2021/05/31 08:43:04;;;;;;;8.7;7.0;;;;;;;20.3;44.8;102110;;;;
2021/05/31 08:45:04;;;;;;;8.7;7.0;;;;;;;20.2;46.5;102120;;;;
2021/05/31 08:47:04;;;;;;;8.7;7.0;;;;;;;20.3;45.5;102110;;;;
2021/05/31 08:49:04;;;;;;;8.7;7.0;;;;;;;20.4;45.8;102110;;;;
2021/05/31 08:53:04;;;;;;;8.7;7.0;;;;;;;20.5;46.6;102110;;;;
2021/05/31 08:55:05;;;;;;;8.7;7.0;;;;;;;20.6;46.6;102110;;;;
2021/05/31 08:57:04;;;;;;;8.7;7.0;;;;;;;20.7;45.8;102110;;;;
2021/05/31 09:03:04;;;;;;;9.2;8.3;;;;;;;20.9;44.3;102100;;;;
2021/05/31 09:05:04;;;;;;;9.2;8.3;;;;;;;21.0;43.5;102100;;;;
2021/05/31 09:07:04;;;;;;;9.2;8.3;;;;;;;20.8;44.4;102100;;;;
2021/05/31 09:09:04;;;;;;;9.2;8.3;;;;;;;20.9;43.4;102090;;;;
2021/05/31 09:11:06;;;;;;;9.2;8.3;;;;;;;20.8;42.5;102090;;;;
2021/05/31 09:13:08;;;;;;;9.2;8.3;;;;;;;20.7;41.4;102090;;;;
2021/05/31 09:15:04;;;;;;;9.2;8.3;;;;;;;20.9;41.9;102090;;;;
2021/05/31 09:17:04;;;;;;;9.2;8.3;;;;;;;20.7;40.9;102090;;;;
2021/05/31 09:21:04;;;;;;;8.2;6.2;;;;;;;20.8;40.4;102090;;;;
2021/05/31 09:23:04;;;;;;;8.2;6.2;;;;;;;20.7;38.2;102090;;;;
2021/05/31 09:25:04;;;;;;;8.2;6.2;;;;;;;20.8;40.5;102090;;;;
2021/05/31 09:29:04;;;;;;;8.2;6.2;;;;;;;21.0;39.0;102090;;;;
2021/05/31 09:33:04;;;;;;;8.2;6.2;;;;;;;21.1;37.8;102080;;;;
2021/05/31 09:35:04;;;;;;;8.2;6.2;;;;;;;20.6;38.4;102080;;;;
2021/05/31 09:37:04;;;;;;;8.2;6.2;;;;;;;20.9;39.3;102080;;;;
2021/05/31 09:39:05;;;;;;;4.7;4.1;;;;;;;21.2;39.1;102080;;;;
2021/05/31 09:41:04;;;;;;;4.7;4.1;;;;;;;21.5;39.0;102080;;;;
2021/05/31 09:43:04;;;;;;;4.7;4.1;;;;;;;21.6;38.7;102080;;;;
2021/05/31 09:47:04;;;;;;;4.7;4.1;;;;;;;21.4;36.5;102080;;;;
2021/05/31 09:51:04;;;;;;;4.7;4.1;;;;;;;21.6;41.1;102080;;;;
2021/05/31 09:53:04;;;;;;;4.7;4.1;;;;;;;21.5;38.2;102070;;;;
2021/05/31 09:55:04;;;;;;;4.7;4.1;;;;;;;21.4;38.7;102080;;;;
2021/05/31 09:57:04;;;;;;;4.7;4.1;;;;;;;21.5;39.6;102070;;;;
2021/05/31 09:59:05;;;;;;;5.5;4.9;;;;;;;21.8;38.4;102070;;;;
2021/05/31 10:01:04;;;;;;;5.5;4.9;;;;;;;21.9;39.3;102070;;;;
2021/05/31 10:09:04;;;;;;;5.5;4.9;;;;;;;21.8;37.5;102060;;;;
2021/05/31 10:11:04;;;;;;;5.5;4.9;;;;;;;21.9;39.2;102050;;;;
2021/05/31 10:13:04;;;;;;;5.5;4.9;;;;;;;22.0;37.4;102060;;;;
2021/05/31 10:15:04;;;;;;;5.5;4.9;;;;;;;22.1;39.1;102060;;;;
2021/05/31 10:17:04;;;;;;;5.5;4.9;;;;;;;22.4;40.7;102050;;;;
2021/05/31 10:21:04;;;;;;;5.8;3.9;;;;;;;22.6;40.3;102050;;;;
2021/05/31 10:23:04;;;;;;;5.8;3.9;;;;;;;22.7;39.6;102050;;;;
2021/05/31 10:27:04;;;;;;;5.8;3.9;;;;;;;22.8;38.2;102050;;;;
2021/05/31 10:29:04;;;;;;;5.8;3.9;;;;;;;22.4;39.9;102040;;;;
2021/05/31 10:31:04;;;;;;;5.8;3.9;;;;;;;22.5;39.9;102040;;;;
2021/05/31 10:33:04;;;;;;;5.8;3.9;;;;;;;22.6;38.1;102040;;;;
2021/05/31 10:35:04;;;;;;;5.8;3.9;;;;;;;22.4;38.2;102040;;;;
2021/05/31 10:37:04;;;;;;;5.8;3.9;;;;;;;22.5;38.1;102030;;;;
2021/05/31 10:41:04;;;;;;;5.9;4.5;;;;;;;22.6;41.3;102030;;;;
2021/05/31 10:43:04;;;;;;;5.9;4.5;;;;;;;22.7;39.8;102030;;;;
2021/05/31 10:45:04;;;;;;;5.9;4.5;;;;;;;22.8;41.1;102030;;;;
2021/05/31 10:47:04;;;;;;;5.9;4.5;;;;;;;23.0;39.3;102030;;;;
2021/05/31 10:49:05;;;;;;;5.9;4.5;;;;;;;22.6;37.7;102030;;;;
2021/05/31 10:53:04;;;;;;;5.9;4.5;;;;;;;22.7;39.9;102030;;;;
2021/05/31 10:55:04;;;;;;;5.9;4.5;;;;;;;22.6;37.3;102020;;;;
2021/05/31 10:57:04;;;;;;;5.9;4.5;;;;;;;22.3;38.6;102030;;;;
2021/05/31 10:59:04;;;;;;;6.0;5.4;;;;;;;22.4;38.1;102030;;;;
2021/05/31 11:01:04;;;;;;;6.0;5.4;;;;;;;22.5;37.9;102020;;;;
2021/05/31 11:03:04;;;;;;;6.0;5.4;;;;;;;22.7;39.9;102020;;;;
2021/05/31 11:09:04;;;;;;;6.0;5.4;;;;;;;22.9;38.6;102020;;;;
2021/05/31 11:11:04;;;;;;;6.0;5.4;;;;;;;22.6;38.8;102020;;;;
2021/05/31 11:13:04;;;;;;;6.0;5.4;;;;;;;22.9;42.2;102010;;;;
2021/05/31 11:15:04;;;;;;;6.0;5.4;;;;;;;23.2;41.8;102010;;;;
2021/05/31 11:17:04;;;;;;;6.0;5.4;;;;;;;23.3;41.9;102010;;;;
2021/05/31 11:19:04;;;;;;;7.9;6.9;;;;;;;23.4;40.6;102000;;;;
2021/05/31 11:21:04;;;;;;;7.9;6.9;;;;;;;22.9;39.7;102000;;;;
2021/05/31 11:23:04;;;;;;;7.9;6.9;;;;;;;23.3;39.2;102000;;;;
2021/05/31 11:25:04;;;;;;;7.9;6.9;;;;;;;23.5;39.6;102000;;;;
2021/05/31 11:27:04;;;;;;;7.9;6.9;;;;;;;23.6;38.1;102000;;;;
2021/05/31 11:29:04;;;;;;;7.9;6.9;;;;;;;23.8;41.5;102000;;;;
2021/05/31 11:31:04;;;;;;;7.9;6.9;;;;;;;24.0;39.7;101990;;;;
2021/05/31 11:33:04;;;;;;;7.9;6.9;;;;;;;23.9;38.1;101990;;;;
2021/05/31 11:37:04;;;;;;;7.9;6.9;;;;;;;23.8;36.7;101980;;;;
2021/05/31 11:39:06;;;;;;;7.5;6.5;;;;;;;24.0;36.7;101980;;;;
2021/05/31 11:41:04;;;;;;;7.5;6.5;;;;;;;24.2;38.7;101980;;;;
2021/05/31 11:43:04;;;;;;;7.5;6.5;;;;;;;24.3;38.0;101980;;;;
2021/05/31 11:45:04;;;;;;;7.5;6.5;;;;;;;24.0;38.5;101970;;;;
2021/05/31 11:47:04;;;;;;;7.5;6.5;;;;;;;24.3;41.8;101970;;;;
2021/05/31 11:49:04;;;;;;;7.5;6.5;;;;;;;24.5;37.9;101970;;;;
2021/05/31 11:51:04;;;;;;;7.5;6.5;;;;;;;24.6;39.9;101970;;;;
2021/05/31 11:53:04;;;;;;;7.5;6.5;;;;;;;25.0;37.8;101970;;;;
2021/05/31 11:55:04;;;;;;;7.5;6.5;;;;;;;24.5;37.5;101970;;;;
2021/05/31 11:57:04;;;;;;;7.5;6.5;;;;;;;24.3;41.4;101970;;;;
2021/05/31 11:59:04;;;;;;;8.0;7.2;;;;;;;24.5;38.7;101970;;;;
2021/05/31 12:01:04;;;;;;;8.0;7.2;;;;;;;24.2;38.0;101960;;;;
2021/05/31 12:03:04;;;;;;;8.0;7.2;;;;;;;24.5;37.2;101960;;;;
2021/05/31 12:05:04;;;;;;;8.0;7.2;;;;;;;24.6;37.2;101960;;;;
2021/05/31 12:07:04;;;;;;;8.0;7.2;;;;;;;24.8;39.8;101960;;;;
2021/05/31 12:11:04;;;;;;;8.0;7.2;;;;;;;24.4;37.4;101950;;;;
2021/05/31 12:13:04;;;;;;;8.0;7.2;;;;;;;24.1;37.3;101950;;;;
2021/05/31 12:15:04;;;;;;;8.0;7.2;;;;;;;24.3;39.7;101950;;;;
2021/05/31 12:17:05;;;;;;;8.0;7.2;;;;;;;24.2;40.0;101950;;;;
2021/05/31 12:21:04;;;;;;;9.8;8.0;;;;;;;23.8;38.2;101950;;;;
2021/05/31 12:23:04;;;;;;;9.8;8.0;;;;;;;24.2;43.9;101950;;;;
2021/05/31 12:25:04;;;;;;;9.8;8.0;;;;;;;24.5;43.8;101940;;;;
2021/05/31 12:27:04;;;;;;;9.8;8.0;;;;;;;24.8;45.7;101940;;;;
2021/05/31 12:31:05;;;;;;;9.8;8.0;;;;;;;24.7;40.2;101940;;;;
2021/05/31 12:33:04;;;;;;;9.8;8.0;;;;;;;24.4;38.4;101940;;;;
2021/05/31 12:35:04;;;;;;;9.8;8.0;;;;;;;24.2;41.1;101940;;;;
2021/05/31 12:37:04;;;;;;;9.8;8.0;;;;;;;24.1;38.3;101940;;;;
2021/05/31 12:43:04;;;;;;;8.8;7.9;;;;;;;24.2;38.1;101930;;;;
2021/05/31 12:45:04;;;;;;;8.8;7.9;;;;;;;24.3;41.2;101930;;;;
2021/05/31 12:47:04;;;;;;;8.8;7.9;;;;;;;24.4;37.6;101930;;;;
2021/05/31 12:49:04;;;;;;;8.8;7.9;;;;;;;24.2;37.6;101930;;;;
2021/05/31 12:51:15;;;;;;;8.8;7.9;;;;;;;24.0;36.7;101930;;;;
2021/05/31 12:53:04;;;;;;;8.8;7.9;;;;;;;24.3;36.9;101930;;;;
2021/05/31 12:55:05;;;;;;;8.8;7.9;;;;;;;24.4;36.8;101930;;;;
2021/05/31 12:57:04;;;;;;;8.8;7.9;;;;;;;24.5;35.4;101930;;;;
2021/05/31 13:05:04;;;;;;;6.8;5.8;;;;;;;24.4;36.1;101920;;;;
2021/05/31 13:07:04;;;;;;;6.8;5.8;;;;;;;24.3;34.1;101920;;;;
2021/05/31 13:09:04;;;;;;;6.8;5.8;;;;;;;24.4;34.0;101920;;;;
2021/05/31 13:13:04;;;;;;;6.8;5.8;;;;;;;24.6;35.6;101910;;;;
2021/05/31 13:15:04;;;;;;;6.8;5.8;;;;;;;24.0;34.1;101910;;;;
2021/05/31 13:17:04;;;;;;;6.8;5.8;;;;;;;24.2;34.6;101910;;;;
2021/05/31 13:21:04;;;;;;;7.5;4.9;;;;;;;24.3;33.4;101910;;;;
2021/05/31 13:23:04;;;;;;;7.5;4.9;;;;;;;24.5;34.6;101910;;;;
2021/05/31 13:25:04;;;;;;;7.5;4.9;;;;;;;24.3;32.5;101910;;;;
2021/05/31 13:27:04;;;;;;;7.5;4.9;;;;;;;24.4;32.9;101900;;;;
2021/05/31 13:29:05;;;;;;;7.5;4.9;;;;;;;24.8;32.8;101900;;;;
2021/05/31 13:31:04;;;;;;;7.5;4.9;;;;;;;24.9;33.3;101900;;;;
2021/05/31 13:33:04;;;;;;;7.5;4.9;;;;;;;25.0;32.8;101900;;;;
2021/05/31 13:35:04;;;;;;;7.5;4.9;;;;;;;24.5;32.8;101900;;;;
2021/05/31 13:37:04;;;;;;;7.5;4.9;;;;;;;24.6;32.8;101900;;;;
2021/05/31 13:39:04;;;;;;;4.6;4.2;;;;;;;24.5;34.5;101890;;;;
2021/05/31 13:41:04;;;;;;;4.6;4.2;;;;;;;24.7;32.6;101900;;;;
2021/05/31 13:43:06;;;;;;;4.6;4.2;;;;;;;24.5;33.1;101900;;;;
2021/05/31 13:45:04;;;;;;;4.6;4.2;;;;;;;24.6;33.8;101900;;;;
2021/05/31 13:47:04;;;;;;;4.6;4.2;;;;;;;24.7;32.3;101890;;;;
2021/05/31 13:49:04;;;;;;;4.6;4.2;;;;;;;25.0;32.5;101890;;;;
2021/05/31 13:51:04;;;;;;;4.6;4.2;;;;;;;24.8;32.2;101890;;;;
2021/05/31 13:53:04;;;;;;;4.6;4.2;;;;;;;24.9;31.9;101890;;;;
2021/05/31 13:55:04;;;;;;;4.6;4.2;;;;;;;24.8;32.6;101880;;;;
2021/05/31 13:57:04;;;;;;;4.6;4.2;;;;;;;25.1;35.4;101880;;;;
2021/05/31 13:59:04;;;;;;;6.2;5.2;;;;;;;24.8;32.9;101880;;;;
2021/05/31 14:01:04;;;;;;;6.2;5.2;;;;;;;25.0;33.6;101880;;;;
2021/05/31 14:03:04;;;;;;;6.2;5.2;;;;;;;24.8;33.0;101870;;;;
2021/05/31 14:05:04;;;;;;;6.2;5.2;;;;;;;25.1;32.9;101870;;;;
2021/05/31 14:07:04;;;;;;;6.2;5.2;;;;;;;25.4;33.9;101860;;;;
2021/05/31 14:09:04;;;;;;;6.2;5.2;;;;;;;25.5;33.0;101860;;;;
2021/05/31 14:11:04;;;;;;;6.2;5.2;;;;;;;25.8;35.6;101850;;;;
2021/05/31 14:13:04;;;;;;;6.2;5.2;;;;;;;25.9;32.7;101850;;;;
2021/05/31 14:15:04;;;;;;;6.2;5.2;;;;;;;26.3;35.0;101850;;;;
2021/05/31 14:17:04;;;;;;;6.2;5.2;;;;;;;26.0;33.6;101840;;;;
2021/05/31 14:19:04;;;;;;;6.4;5.4;;;;;;;26.3;33.3;101840;;;;
2021/05/31 14:21:04;;;;;;;6.4;5.4;;;;;;;26.4;32.3;101840;;;;
2021/05/31 14:23:04;;;;;;;6.4;5.4;;;;;;;26.3;31.2;101840;;;;
2021/05/31 14:25:04;;;;;;;6.4;5.4;;;;;;;26.5;33.1;101840;;;;
2021/05/31 14:27:07;;;;;;;6.4;5.4;;;;;;;26.2;31.6;101840;;;;
2021/05/31 14:29:04;;;;;;;6.4;5.4;;;;;;;26.0;31.1;101830;;;;
2021/05/31 14:33:04;;;;;;;6.4;5.4;;;;;;;26.4;30.8;101830;;;;
2021/05/31 14:35:04;;;;;;;6.4;5.4;;;;;;;26.5;31.1;101830;;;;
2021/05/31 14:37:04;;;;;;;8.9;6.9;;;;;;;27.0;32.8;101830;;;;
2021/05/31 14:39:04;;;;;;;8.9;6.9;;;;;;;26.5;30.4;101830;;;;
2021/05/31 14:41:04;;;;;;;8.9;6.9;;;;;;;26.2;30.7;101830;;;;
2021/05/31 14:43:04;;;;;;;8.9;6.9;;;;;;;26.4;31.4;101830;;;;
2021/05/31 14:45:04;;;;;;;8.9;6.9;;;;;;;27.1;31.4;101820;;;;
2021/05/31 14:47:04;;;;;;;8.9;6.9;;;;;;;27.0;30.9;101830;;;;
2021/05/31 14:49:04;;;;;;;8.9;6.9;;;;;;;27.4;32.6;101820;;;;
2021/05/31 14:51:11;;;;;;;8.9;6.9;;;;;;;27.5;31.9;101820;;;;
2021/05/31 14:53:04;;;;;;;8.9;6.9;;;;;;;27.0;29.9;101820;;;;
2021/05/31 14:55:04;;;;;;;8.9;6.9;;;;;;;27.3;31.4;101820;;;;
2021/05/31 14:57:04;;;;;;;6.2;5.6;;;;;;;27.9;28.5;101820;;;;
2021/05/31 14:59:04;;;;;;;6.2;5.6;;;;;;;28.1;33.8;101820;;;;
2021/05/31 15:01:04;;;;;;;6.2;5.6;;;;;;;28.0;31.4;101820;;;;
2021/05/31 15:03:04;;;;;;;6.2;5.6;;;;;;;27.9;30.7;101820;;;;
2021/05/31 15:07:04;;;;;;;6.2;5.6;;;;;;;28.0;27.5;101820;;;;
2021/05/31 15:09:05;;;;;;;6.2;5.6;;;;;;;28.3;28.3;101820;;;;
2021/05/31 15:11:04;;;;;;;6.2;5.6;;;;;;;28.5;28.0;101810;;;;
2021/05/31 15:13:04;;;;;;;6.2;5.6;;;;;;;27.9;27.1;101820;;;;
2021/05/31 15:15:04;;;;;;;6.2;5.6;;;;;;;28.0;26.4;101810;;;;
2021/05/31 15:17:04;;;;;;;4.0;3.2;;;;;;;28.1;26.8;101810;;;;
2021/05/31 15:19:04;;;;;;;4.0;3.2;;;;;;;28.4;26.8;101810;;;;
2021/05/31 15:21:04;;;;;;;4.0;3.2;;;;;;;28.8;25.3;101810;;;;
2021/05/31 15:23:04;;;;;;;4.0;3.2;;;;;;;28.7;24.1;101800;;;;
2021/05/31 15:25:04;;;;;;;4.0;3.2;;;;;;;28.8;25.0;101800;;;;
2021/05/31 15:27:09;;;;;;;4.0;3.2;;;;;;;28.9;23.7;101800;;;;
2021/05/31 15:31:04;;;;;;;4.0;3.2;;;;;;;28.7;24.0;101800;;;;
2021/05/31 15:33:04;;;;;;;4.0;3.2;;;;;;;28.6;23.7;101790;;;;
2021/05/31 15:35:04;;;;;;;4.0;3.2;;;;;;;29.0;25.0;101790;;;;
2021/05/31 15:37:04;;;;;;;4.7;4.1;;;;;;;29.6;26.8;101790;;;;
2021/05/31 15:39:04;;;;;;;4.7;4.1;;;;;;;29.8;26.0;101780;;;;
2021/05/31 15:43:04;;;;;;;4.7;4.1;;;;;;;29.5;24.0;101780;;;;
2021/05/31 15:47:05;;;;;;;4.7;4.1;;;;;;;28.9;23.8;101780;;;;
2021/05/31 15:49:04;;;;;;;4.7;4.1;;;;;;;29.0;25.0;101780;;;;
2021/05/31 15:51:14;;;;;;;4.7;4.1;;;;;;;29.2;24.2;101770;;;;
2021/05/31 15:53:04;;;;;;;4.7;4.1;;;;;;;29.7;23.9;101770;;;;
2021/05/31 15:55:04;;;;;;;4.7;4.1;;;;;;;29.2;23.4;101770;;;;
2021/05/31 15:57:05;;;;;;;4.7;3.6;;;;;;;29.5;23.9;101770;;;;
2021/05/31 15:59:04;;;;;;;4.7;3.6;;;;;;;29.8;23.4;101770;;;;
2021/05/31 16:01:04;;;;;;;4.7;3.6;;;;;;;30.0;23.1;101770;;;;
2021/05/31 16:03:04;;;;;;;4.7;3.6;;;;;;;29.8;24.5;101760;;;;
2021/05/31 16:05:04;;;;;;;4.7;3.6;;;;;;;29.6;23.7;101760;;;;
2021/05/31 16:09:05;;;;;;;4.7;3.6;;;;;;;30.1;22.8;101760;;;;
2021/05/31 16:13:12;;;;;;;4.7;3.6;;;;;;;29.1;22.8;101760;;;;
2021/05/31 16:15:07;;;;;;;4.7;3.6;;;;;;;28.9;24.9;101750;;;;
2021/05/31 16:17:15;;;;;;;4.1;3.4;;;;;;;29.4;23.8;101750;;;;
2021/05/31 16:19:05;;;;;;;4.1;3.4;;;;;;;29.6;23.3;101750;;;;
2021/05/31 16:21:04;;;;;;;4.1;3.4;;;;;;;29.5;22.7;101750;;;;
2021/05/31 16:25:20;;;;;;;4.1;3.4;;;;;;;29.5;23.0;101750;;;;
2021/05/31 16:27:04;;;;;;;4.1;3.4;;;;;;;29.4;22.0;101750;;;;
2021/05/31 16:29:04;;;;;;;4.1;3.4;;;;;;;29.1;25.1;101750;;;;
2021/05/31 16:33:08;;;;;;;4.1;3.4;;;;;;;29.5;25.0;101740;;;;
2021/05/31 16:35:04;;;;;;;4.1;3.4;;;;;;;30.1;23.8;101740;;;;
2021/05/31 16:39:04;;;;;;;4.3;3.3;;;;;;;29.7;24.1;101730;;;;
2021/05/31 16:41:04;;;;;;;4.3;3.3;;;;;;;29.6;22.3;101730;;;;
2021/05/31 16:43:04;;;;;;;4.3;3.3;;;;;;;29.8;24.5;101730;;;;
2021/05/31 16:45:06;;;;;;;4.3;3.3;;;;;;;29.9;22.6;101730;;;;
2021/05/31 16:47:04;;;;;;;4.3;3.3;;;;;;;30.2;22.3;101730;;;;
2021/05/31 16:49:04;;;;;;;4.3;3.3;;;;;;;30.3;22.4;101730;;;;
2021/05/31 16:53:04;;;;;;;4.3;3.3;;;;;;;30.1;22.7;101720;;;;
2021/05/31 16:55:04;;;;;;;4.3;3.3;;;;;;;30.6;21.8;101720;;;;
2021/05/31 16:57:04;;;;;;;7.8;6.7;;;;;;;30.2;23.2;101720;;;;
2021/05/31 16:59:04;;;;;;;7.8;6.7;;;;;;;29.0;24.0;101710;;;;
2021/05/31 17:00:43;;;;;;;4.6;4.2;;;;;;;29.6;23.9;101720;;;;
2021/05/31 17:02:43;;;;;;;4.6;4.2;;;;;;;30.0;23.1;101710;;;;